createdAt,value
2023-09-03T00:02:00.708Z,100.00
2023-09-03T00:04:27.819Z,100.00
2023-09-03T00:06:54.688Z,100.00
2023-09-03T00:09:21.571Z,100.00
2023-09-03T00:11:48.451Z,100.00
2023-09-03T00:14:15.368Z,100.00
2023-09-03T00:16:42.261Z,100.00
2023-09-03T00:19:10.606Z,100.00
2023-09-03T00:21:37.546Z,100.00
2023-09-03T00:24:04.478Z,100.00
2023-09-03T00:26:31.417Z,100.00
2023-09-03T00:28:58.419Z,100.00
2023-09-03T00:31:26.657Z,100.00
2023-09-03T00:33:53.582Z,100.00
2023-09-03T00:36:21.581Z,100.00
2023-09-03T00:38:49.009Z,100.00
2023-09-03T00:41:15.919Z,100.00
2023-09-03T00:43:42.900Z,100.00
2023-09-03T00:46:09.955Z,100.00
2023-09-03T00:48:37.421Z,100.00
2023-09-03T00:51:06.805Z,100.00
2023-09-03T00:53:35.221Z,100.00
2023-09-03T00:56:02.400Z,100.00
2023-09-03T00:58:29.477Z,100.00
2023-09-03T01:00:57.203Z,100.00
2023-09-03T01:03:24.386Z,100.00
2023-09-03T01:05:51.363Z,100.00
2023-09-03T01:08:18.768Z,100.00
2023-09-03T01:11:02.676Z,100.00
2023-09-03T01:13:33.149Z,100.00
2023-09-03T01:16:01.603Z,100.00
2023-09-03T01:18:29.723Z,100.00
2023-09-03T01:21:34.989Z,100.00
2023-09-03T01:24:07.462Z,100.00
2023-09-03T01:26:53.025Z,100.00
2023-09-03T01:29:20.993Z,100.00
2023-09-03T01:31:49.433Z,100.00
2023-09-03T01:34:16.566Z,100.00
2023-09-03T01:36:44.245Z,100.00
2023-09-03T01:39:11.136Z,100.00
2023-09-03T01:41:39.318Z,100.00
2023-09-03T01:44:06.364Z,100.00
2023-09-03T01:46:38.981Z,100.00
2023-09-03T01:49:14.268Z,100.00
2023-09-03T01:51:50.044Z,100.00
2023-09-03T01:54:22.257Z,100.00
2023-09-03T01:56:59.698Z,100.00
2023-09-03T01:59:34.387Z,100.00
2023-09-03T02:02:01.516Z,100.00
2023-09-03T02:04:28.634Z,100.00
2023-09-03T02:06:55.531Z,100.00
2023-09-03T02:09:22.374Z,100.00
2023-09-03T02:11:49.282Z,100.00
2023-09-03T02:14:16.229Z,100.00
2023-09-03T02:16:43.169Z,100.00
2023-09-03T02:19:10.664Z,100.00
2023-09-03T02:21:37.610Z,100.00
2023-09-03T02:24:04.759Z,100.00
2023-09-03T02:26:31.942Z,100.00
2023-09-03T02:28:58.835Z,100.00
2023-09-03T02:31:25.687Z,100.00
2023-09-03T02:33:52.522Z,100.00
2023-09-03T02:36:19.768Z,100.00
2023-09-03T02:38:46.730Z,100.00
2023-09-03T02:41:13.547Z,100.00
2023-09-03T02:43:40.397Z,100.00
2023-09-03T02:46:07.320Z,100.00
2023-09-03T02:48:34.375Z,100.00
2023-09-03T02:51:01.604Z,100.00
2023-09-03T02:53:28.728Z,100.00
2023-09-03T02:55:57.968Z,100.00
2023-09-03T02:58:24.863Z,100.00
2023-09-03T03:00:51.833Z,100.00
2023-09-03T03:03:18.912Z,100.00
2023-09-03T03:05:45.849Z,100.00
2023-09-03T03:08:12.696Z,100.00
2023-09-03T03:10:39.922Z,100.00
2023-09-03T03:13:06.804Z,100.00
2023-09-03T03:15:35.425Z,100.00
2023-09-03T03:18:02.464Z,100.00
2023-09-03T03:20:29.728Z,100.00
2023-09-03T03:22:57.442Z,100.00
2023-09-03T03:25:24.470Z,100.00
2023-09-03T03:27:51.462Z,100.00
2023-09-03T03:30:18.423Z,100.00
2023-09-03T03:32:45.535Z,100.00
2023-09-03T03:35:12.551Z,100.00
2023-09-03T03:37:39.505Z,100.00
2023-09-03T03:40:07.683Z,100.00
2023-09-03T03:42:34.628Z,100.00
2023-09-03T03:45:01.569Z,100.00
2023-09-03T03:47:28.583Z,100.00
2023-09-03T03:49:55.607Z,100.00
2023-09-03T03:52:22.794Z,100.00
2023-09-03T03:54:50.865Z,100.00
2023-09-03T03:57:17.761Z,100.00
2023-09-03T03:59:44.745Z,100.00
2023-09-03T04:02:11.751Z,100.00
2023-09-03T04:04:38.650Z,100.00
2023-09-03T04:07:06.136Z,100.00
2023-09-03T04:09:33.061Z,100.00
2023-09-03T04:11:59.956Z,100.00
2023-09-03T04:14:26.923Z,100.00
2023-09-03T04:16:54.044Z,100.00
2023-09-03T04:19:21.655Z,100.00
2023-09-03T04:21:49.017Z,100.00
2023-09-03T04:24:15.858Z,100.00
2023-09-03T04:26:43.330Z,100.00
2023-09-03T04:29:10.266Z,100.00
2023-09-03T04:31:37.574Z,100.00
2023-09-03T04:34:06.910Z,100.00
2023-09-03T04:36:35.140Z,100.00
2023-09-03T04:39:02.217Z,100.00
2023-09-03T04:41:29.101Z,100.00
2023-09-03T04:44:08.738Z,100.00
2023-09-03T04:46:36.028Z,100.00
2023-09-03T04:49:02.980Z,100.00
2023-09-03T04:51:30.227Z,100.00
2023-09-03T04:53:57.125Z,100.00
2023-09-03T04:56:24.965Z,100.00
2023-09-03T04:58:51.904Z,100.00
2023-09-03T05:01:19.376Z,100.00
2023-09-03T05:03:46.535Z,100.00
2023-09-03T05:06:14.349Z,100.00
2023-09-03T05:08:41.273Z,100.00
2023-09-03T05:11:09.074Z,100.00
2023-09-03T05:13:35.988Z,100.00
2023-09-03T05:16:03.689Z,100.00
2023-09-03T05:18:30.609Z,100.00
2023-09-03T05:20:58.540Z,100.00
2023-09-03T05:23:25.409Z,100.00
2023-09-03T05:25:52.355Z,100.00
2023-09-03T05:28:19.744Z,100.00
2023-09-03T05:30:49.462Z,100.00
2023-09-03T05:33:16.878Z,100.00
2023-09-03T05:35:43.904Z,100.00
2023-09-03T05:38:10.876Z,100.00
2023-09-03T05:40:37.851Z,100.00
2023-09-03T05:43:04.871Z,100.00
2023-09-03T05:45:31.828Z,100.00
2023-09-03T05:47:59.200Z,100.00
2023-09-03T05:50:26.586Z,100.00
2023-09-03T05:52:53.598Z,100.00
2023-09-03T05:55:21.391Z,100.00
2023-09-03T05:57:48.610Z,100.00
2023-09-03T06:00:16.096Z,100.00
2023-09-03T06:02:43.019Z,100.00
2023-09-03T06:05:10.608Z,100.00
2023-09-03T06:07:37.585Z,100.00
2023-09-03T06:10:04.852Z,100.00
2023-09-03T06:12:31.791Z,100.00
2023-09-03T06:14:58.809Z,100.00
2023-09-03T06:17:25.632Z,100.00
2023-09-03T06:19:52.773Z,100.00
2023-09-03T06:22:20.195Z,100.00
2023-09-03T06:24:47.063Z,100.00
2023-09-03T06:27:13.975Z,100.00
2023-09-03T06:29:40.870Z,100.00
2023-09-03T06:32:07.755Z,100.00
2023-09-03T06:34:34.614Z,100.00
2023-09-03T06:37:01.544Z,100.00
2023-09-03T06:39:28.891Z,100.00
2023-09-03T06:41:55.883Z,100.00
2023-09-03T06:44:24.483Z,100.00
2023-09-03T06:46:51.566Z,100.00
2023-09-03T06:49:22.005Z,100.00
2023-09-03T06:51:49.909Z,100.00
2023-09-03T06:54:16.801Z,100.00
2023-09-03T06:56:43.797Z,100.00
2023-09-03T06:59:12.155Z,100.00
2023-09-03T07:01:40.604Z,100.00
2023-09-03T07:04:07.576Z,100.00
2023-09-03T07:06:34.554Z,100.00
2023-09-03T07:09:01.479Z,100.00
2023-09-03T07:11:28.419Z,100.00
2023-09-03T07:13:55.360Z,100.00
2023-09-03T07:16:22.321Z,100.00
2023-09-03T07:18:49.855Z,100.00
2023-09-03T07:21:16.702Z,100.00
2023-09-03T07:23:44.252Z,100.00
2023-09-03T07:26:11.160Z,100.00
2023-09-03T07:28:38.588Z,100.00
2023-09-03T07:31:05.736Z,100.00
2023-09-03T07:33:33.674Z,100.00
2023-09-03T07:36:00.933Z,100.00
2023-09-03T07:38:28.905Z,100.00
2023-09-03T07:40:56.256Z,100.00
2023-09-03T07:43:23.862Z,100.00
2023-09-03T07:45:51.389Z,100.00
2023-09-03T07:48:18.553Z,100.00
2023-09-03T07:50:45.569Z,100.00
2023-09-03T07:53:12.515Z,100.00
2023-09-03T07:55:40.622Z,100.00
2023-09-03T07:58:07.734Z,100.00
2023-09-03T08:00:34.624Z,100.00
2023-09-03T08:03:01.667Z,100.00
2023-09-03T08:05:29.092Z,100.00
2023-09-03T08:07:56.364Z,100.00
2023-09-03T08:10:23.971Z,100.00
2023-09-03T08:12:53.701Z,100.00
2023-09-03T08:15:30.155Z,100.00
2023-09-03T08:18:04.913Z,100.00
2023-09-03T08:20:31.976Z,100.00
2023-09-03T08:22:58.997Z,100.00
2023-09-03T08:25:26.077Z,100.00
2023-09-03T08:27:53.101Z,100.00
2023-09-03T08:30:20.437Z,100.00
2023-09-03T08:32:47.432Z,100.00
2023-09-03T08:35:15.193Z,100.00
2023-09-03T08:37:42.201Z,100.00
2023-09-03T08:40:09.425Z,100.00
2023-09-03T08:42:38.683Z,100.00
2023-09-03T08:45:06.108Z,100.00
2023-09-03T08:47:35.080Z,100.00
2023-09-03T08:50:03.457Z,100.00
2023-09-03T08:52:30.882Z,100.00
2023-09-03T08:54:58.037Z,100.00
2023-09-03T08:57:27.145Z,100.00
2023-09-03T08:59:54.052Z,100.00
2023-09-03T09:02:21.471Z,100.00
2023-09-03T09:04:48.527Z,100.00
2023-09-03T09:07:15.720Z,100.00
2023-09-03T09:09:43.339Z,100.00
2023-09-03T09:12:18.433Z,100.00
2023-09-03T09:14:54.031Z,100.00
2023-09-03T09:17:21.402Z,100.00
2023-09-03T09:19:48.551Z,100.00
2023-09-03T09:22:17.245Z,100.00
2023-09-03T09:24:46.837Z,100.00
2023-09-03T09:27:16.822Z,100.00
2023-09-03T09:29:44.168Z,100.00
2023-09-03T09:32:18.851Z,100.00
2023-09-03T09:34:45.892Z,100.00
2023-09-03T09:37:13.229Z,100.00
2023-09-03T09:39:47.848Z,100.00
2023-09-03T09:42:19.873Z,100.00
2023-09-03T09:44:50.209Z,100.00
2023-09-03T09:47:21.523Z,100.00
2023-09-03T09:49:49.533Z,100.00
2023-09-03T09:52:16.993Z,100.00
2023-09-03T09:54:44.211Z,100.00
2023-09-03T09:57:18.002Z,100.00
2023-09-03T09:59:45.711Z,100.00
2023-09-03T10:02:13.854Z,100.00
2023-09-03T10:04:45.410Z,100.00
2023-09-03T10:07:12.944Z,100.00
2023-09-03T10:09:40.403Z,100.00
2023-09-03T10:12:08.185Z,100.00
2023-09-03T10:14:35.719Z,100.00
2023-09-03T10:17:03.934Z,96.89
2023-09-03T10:19:39.055Z,92.99
2023-09-03T10:22:07.298Z,96.95
2023-09-03T10:24:35.495Z,93.32
2023-09-03T10:27:04.940Z,88.97
2023-09-03T10:29:34.041Z,88.68
2023-09-03T10:32:02.078Z,87.60
2023-09-03T10:34:31.311Z,93.92
2023-09-03T10:37:07.263Z,88.63
2023-09-03T10:39:34.633Z,83.70
2023-09-03T10:42:19.540Z,86.01
2023-09-03T10:44:58.252Z,91.84
2023-09-03T10:47:25.743Z,99.04
2023-09-03T10:49:53.736Z,96.86
2023-09-03T10:52:29.681Z,90.48
2023-09-03T10:55:14.832Z,80.86
2023-09-03T10:57:42.683Z,88.30
2023-09-03T11:00:11.073Z,91.61
2023-09-03T11:02:39.269Z,100.00
2023-09-03T11:05:16.348Z,100.00
2023-09-03T11:07:44.702Z,100.00
2023-09-03T11:10:21.612Z,100.00
2023-09-03T11:12:49.445Z,100.00
2023-09-03T11:15:16.981Z,98.75
2023-09-03T11:17:57.316Z,87.00
2023-09-03T11:20:49.425Z,93.56
2023-09-03T11:23:18.284Z,100.00
2023-09-03T11:25:45.584Z,93.32
2023-09-03T11:28:12.955Z,85.65
2023-09-03T11:30:40.988Z,79.65
2023-09-03T11:33:10.324Z,83.73
2023-09-03T11:35:42.052Z,83.37
2023-09-03T11:38:08.951Z,77.24
2023-09-03T11:40:36.186Z,78.88
2023-09-03T11:43:03.500Z,81.48
2023-09-03T11:45:30.760Z,90.36
2023-09-03T11:47:59.274Z,76.54
2023-09-03T11:50:26.302Z,71.83
2023-09-03T11:52:57.354Z,71.87
2023-09-03T11:55:26.307Z,77.49
2023-09-03T11:57:54.433Z,80.17
2023-09-03T12:00:21.535Z,87.79
2023-09-03T12:02:50.150Z,88.25
2023-09-03T12:05:17.405Z,79.83
2023-09-03T12:07:44.315Z,77.07
2023-09-03T12:10:11.661Z,69.45
2023-09-03T12:12:42.657Z,70.53
2023-09-03T12:15:20.101Z,67.93
2023-09-03T12:17:47.646Z,62.66
2023-09-03T12:20:40.627Z,67.35
2023-09-03T12:23:25.338Z,70.86
2023-09-03T12:25:52.244Z,68.54
2023-09-03T12:28:19.246Z,71.50
2023-09-03T12:31:12.521Z,66.92
2023-09-03T12:33:51.896Z,69.90
2023-09-03T12:36:20.377Z,69.42
2023-09-03T12:38:47.863Z,70.54
2023-09-03T12:41:14.955Z,64.84
2023-09-03T12:43:45.050Z,66.06
2023-09-03T12:46:12.665Z,69.18
2023-09-03T12:48:40.064Z,69.89
2023-09-03T12:51:07.009Z,69.00
2023-09-03T12:53:33.856Z,69.64
2023-09-03T12:56:00.723Z,73.65
2023-09-03T12:58:27.637Z,70.13
2023-09-03T13:00:54.624Z,72.10
2023-09-03T13:03:22.060Z,69.55
2023-09-03T13:05:51.441Z,71.24
2023-09-03T13:08:18.907Z,68.98
2023-09-03T13:10:45.854Z,71.13
2023-09-03T13:13:15.542Z,69.02
2023-09-03T13:15:42.488Z,70.25
2023-09-03T13:18:09.633Z,66.46
2023-09-03T13:20:36.808Z,65.29
2023-09-03T13:23:03.840Z,63.70
2023-09-03T13:25:35.252Z,65.15
2023-09-03T13:28:02.526Z,65.18
2023-09-03T13:30:29.415Z,65.12
2023-09-03T13:32:57.313Z,64.31
2023-09-03T13:35:24.534Z,64.90
2023-09-03T13:37:51.450Z,64.25
2023-09-03T13:40:18.994Z,62.39
2023-09-03T13:42:45.848Z,58.38
2023-09-03T13:45:13.919Z,59.59
2023-09-03T13:47:40.938Z,54.49
2023-09-03T13:50:08.551Z,51.87
2023-09-03T13:52:37.023Z,53.42
2023-09-03T13:55:04.068Z,49.71
2023-09-03T13:57:30.959Z,46.76
2023-09-03T13:59:58.598Z,46.91
2023-09-03T14:02:30.161Z,46.87
2023-09-03T14:04:58.726Z,45.01
2023-09-03T14:07:25.825Z,43.92
2023-09-03T14:09:53.221Z,42.17
2023-09-03T14:12:20.465Z,40.72
2023-09-03T14:14:47.310Z,39.68
2023-09-03T14:17:14.186Z,39.15
2023-09-03T14:19:41.092Z,40.97
2023-09-03T14:22:08.092Z,41.10
2023-09-03T14:24:36.345Z,41.92
2023-09-03T14:27:04.327Z,41.43
2023-09-03T14:29:31.578Z,42.02
2023-09-03T14:31:58.517Z,42.83
2023-09-03T14:34:25.436Z,43.51
2023-09-03T14:36:52.370Z,43.64
2023-09-03T14:39:23.115Z,45.43
2023-09-03T14:41:51.396Z,45.83
2023-09-03T14:44:18.342Z,45.12
2023-09-03T14:46:46.264Z,45.05
2023-09-03T14:49:13.581Z,45.66
2023-09-03T14:51:40.577Z,44.61
2023-09-03T14:54:07.606Z,42.05
2023-09-03T14:56:34.434Z,42.29
2023-09-03T14:59:01.849Z,43.86
2023-09-03T15:01:28.916Z,42.30
2023-09-03T15:03:56.310Z,44.20
2023-09-03T15:06:23.965Z,46.16
2023-09-03T15:08:54.277Z,47.62
2023-09-03T15:11:22.455Z,48.49
2023-09-03T15:13:54.164Z,50.67
2023-09-03T15:16:21.860Z,51.36
2023-09-03T15:18:49.000Z,54.24
2023-09-03T15:21:15.931Z,53.08
2023-09-03T15:23:43.483Z,56.63
2023-09-03T15:26:10.432Z,56.46
2023-09-03T15:28:37.468Z,56.95
2023-09-03T15:31:04.912Z,56.47
2023-09-03T15:33:31.856Z,57.90
2023-09-03T15:35:58.776Z,60.28
2023-09-03T15:38:25.752Z,62.74
2023-09-03T15:40:52.653Z,63.07
2023-09-03T15:43:22.464Z,61.04
2023-09-03T15:45:53.192Z,59.46
2023-09-03T15:48:21.467Z,60.08
2023-09-03T15:50:49.020Z,58.98
2023-09-03T15:53:16.082Z,60.26
2023-09-03T15:55:42.977Z,59.92
2023-09-03T15:58:09.838Z,62.59
2023-09-03T16:00:37.256Z,60.96
2023-09-03T16:03:04.756Z,59.61
2023-09-03T16:05:31.669Z,62.00
2023-09-03T16:07:58.574Z,65.03
2023-09-03T16:10:25.587Z,62.64
2023-09-03T16:12:58.204Z,62.64
2023-09-03T16:15:25.913Z,71.90
2023-09-03T16:17:53.128Z,70.78
2023-09-03T16:20:20.703Z,73.42
2023-09-03T16:22:47.661Z,74.72
2023-09-03T16:25:14.701Z,72.59
2023-09-03T16:27:41.767Z,68.33
2023-09-03T16:30:09.743Z,77.85
2023-09-03T16:32:38.945Z,76.24
2023-09-03T16:35:06.158Z,68.62
2023-09-03T16:37:33.142Z,66.96
2023-09-03T16:40:00.190Z,62.29
2023-09-03T16:42:27.116Z,60.34
2023-09-03T16:44:58.473Z,60.45
2023-09-03T16:47:29.088Z,60.45
2023-09-03T16:49:56.320Z,59.60
2023-09-03T16:52:23.823Z,55.96
2023-09-03T16:54:51.446Z,57.29
2023-09-03T16:57:18.983Z,58.14
2023-09-03T16:59:45.900Z,61.60
2023-09-03T17:02:16.235Z,64.82
2023-09-03T17:04:43.691Z,67.88
2023-09-03T17:07:11.759Z,65.99
2023-09-03T17:09:39.107Z,63.83
2023-09-03T17:12:06.662Z,66.49
2023-09-03T17:14:33.538Z,69.80
2023-09-03T17:17:04.963Z,75.68
2023-09-03T17:19:32.797Z,83.12
2023-09-03T17:21:59.680Z,89.74
2023-09-03T17:24:26.534Z,94.35
2023-09-03T17:26:53.595Z,100.00
2023-09-03T17:29:22.314Z,100.00
2023-09-03T17:31:51.229Z,100.00
2023-09-03T17:34:20.317Z,100.00
2023-09-03T17:36:47.524Z,100.00
2023-09-03T17:39:15.116Z,100.00
2023-09-03T17:41:42.513Z,100.00
2023-09-03T17:44:09.780Z,100.00
2023-09-03T17:46:37.060Z,100.00
2023-09-03T17:49:04.829Z,100.00
2023-09-03T17:51:31.872Z,100.00
2023-09-03T17:53:58.960Z,100.00
2023-09-03T17:56:25.929Z,100.00
2023-09-03T17:58:52.968Z,100.00
2023-09-03T18:01:23.110Z,100.00
2023-09-03T18:03:50.828Z,100.00
2023-09-03T18:06:17.807Z,100.00
2023-09-03T18:08:45.139Z,100.00
2023-09-03T18:11:15.366Z,100.00
2023-09-03T18:13:43.081Z,100.00
2023-09-03T18:16:11.707Z,100.00
2023-09-03T18:18:38.665Z,100.00
2023-09-03T18:21:05.595Z,100.00
2023-09-03T18:23:32.629Z,100.00
2023-09-03T18:25:59.577Z,100.00
2023-09-03T18:28:26.499Z,100.00
2023-09-03T18:30:53.396Z,100.00
2023-09-03T18:33:25.323Z,100.00
2023-09-03T18:35:53.794Z,100.00
2023-09-03T18:38:23.260Z,100.00
2023-09-03T18:40:51.397Z,100.00
2023-09-03T18:43:18.292Z,100.00
2023-09-03T18:45:45.820Z,100.00
2023-09-03T18:48:13.649Z,100.00
2023-09-03T18:50:40.501Z,100.00
2023-09-03T18:53:07.387Z,100.00
2023-09-03T18:55:37.586Z,100.00
2023-09-03T18:58:05.256Z,100.00
2023-09-03T19:00:32.801Z,100.00
2023-09-03T19:02:59.858Z,100.00
2023-09-03T19:05:26.792Z,100.00
2023-09-03T19:07:53.883Z,100.00
2023-09-03T19:10:21.404Z,100.00
2023-09-03T19:12:48.588Z,100.00
2023-09-03T19:15:15.607Z,100.00
2023-09-03T19:17:42.563Z,100.00
2023-09-03T19:20:09.665Z,100.00
2023-09-03T19:22:37.045Z,100.00
2023-09-03T19:25:04.644Z,100.00
2023-09-03T19:27:31.547Z,100.00
2023-09-03T19:29:59.722Z,100.00
2023-09-03T19:32:28.404Z,100.00
2023-09-03T19:34:55.443Z,100.00
2023-09-03T19:37:22.394Z,100.00
2023-09-03T19:39:49.616Z,100.00
2023-09-03T19:42:17.077Z,100.00
2023-09-03T19:44:43.996Z,100.00
2023-09-03T19:47:11.014Z,100.00
2023-09-03T19:49:37.960Z,100.00
2023-09-03T19:52:05.070Z,100.00
2023-09-03T19:54:32.214Z,100.00
2023-09-03T19:56:59.067Z,100.00
2023-09-03T19:59:25.962Z,100.00
2023-09-03T20:01:53.172Z,100.00
2023-09-03T20:04:20.401Z,100.00
2023-09-03T20:06:47.270Z,100.00
2023-09-03T20:09:14.115Z,100.00
2023-09-03T20:11:41.079Z,100.00
2023-09-03T20:14:10.616Z,100.00
2023-09-03T20:16:37.511Z,100.00
2023-09-03T20:19:04.791Z,100.00
2023-09-03T20:21:31.811Z,100.00
2023-09-03T20:23:58.840Z,100.00
2023-09-03T20:26:27.220Z,100.00
2023-09-03T20:28:54.305Z,100.00
2023-09-03T20:31:21.652Z,100.00
2023-09-03T20:33:49.035Z,100.00
2023-09-03T20:36:16.156Z,100.00
2023-09-03T20:38:43.209Z,100.00
2023-09-03T20:41:10.340Z,100.00
2023-09-03T20:43:37.278Z,100.00
2023-09-03T20:46:04.731Z,100.00
2023-09-03T20:48:31.751Z,100.00
2023-09-03T20:51:02.078Z,100.00
2023-09-03T20:53:29.201Z,100.00
2023-09-03T20:55:56.682Z,100.00
2023-09-03T20:58:25.223Z,100.00
2023-09-03T21:00:53.022Z,100.00
2023-09-03T21:03:20.620Z,100.00
2023-09-03T21:05:50.789Z,100.00
2023-09-03T21:08:18.285Z,100.00
2023-09-03T21:10:45.192Z,100.00
2023-09-03T21:13:12.040Z,100.00
2023-09-03T21:15:39.534Z,100.00
2023-09-03T21:18:06.532Z,100.00
2023-09-03T21:20:33.517Z,100.00
2023-09-03T21:23:00.485Z,100.00
2023-09-03T21:25:27.431Z,100.00
2023-09-03T21:27:56.431Z,100.00
2023-09-03T21:30:23.269Z,100.00
2023-09-03T21:32:50.821Z,100.00
2023-09-03T21:35:24.168Z,100.00
2023-09-03T21:37:51.781Z,100.00
2023-09-03T21:40:20.651Z,100.00
2023-09-03T21:42:51.943Z,100.00
2023-09-03T21:45:19.329Z,100.00
2023-09-03T21:47:46.236Z,100.00
2023-09-03T21:50:13.117Z,100.00
2023-09-03T21:52:40.075Z,100.00
2023-09-03T21:55:07.352Z,100.00
2023-09-03T21:57:34.501Z,100.00
2023-09-03T22:00:01.628Z,100.00
2023-09-03T22:02:28.693Z,100.00
2023-09-03T22:04:59.083Z,100.00
2023-09-03T22:07:26.924Z,100.00
2023-09-03T22:09:54.146Z,100.00
2023-09-03T22:12:24.371Z,100.00
2023-09-03T22:14:51.510Z,100.00
2023-09-03T22:17:18.398Z,100.00
2023-09-03T22:19:45.259Z,100.00
2023-09-03T22:22:12.627Z,100.00
2023-09-03T22:24:39.572Z,100.00
2023-09-03T22:27:06.497Z,100.00
2023-09-03T22:29:33.382Z,100.00
2023-09-03T22:32:00.283Z,100.00
2023-09-03T22:34:27.157Z,100.00
2023-09-03T22:36:54.114Z,100.00
2023-09-03T22:39:21.478Z,100.00
2023-09-03T22:41:48.302Z,100.00
2023-09-03T22:44:15.625Z,100.00
2023-09-03T22:46:42.486Z,100.00
2023-09-03T22:49:09.398Z,100.00
2023-09-03T22:51:36.219Z,100.00
2023-09-03T22:54:03.641Z,100.00
2023-09-03T22:56:30.595Z,100.00
2023-09-03T22:58:57.623Z,100.00
2023-09-03T23:01:24.596Z,100.00
2023-09-03T23:03:51.672Z,100.00
2023-09-03T23:06:18.676Z,100.00
2023-09-03T23:08:46.162Z,100.00
2023-09-03T23:11:13.067Z,100.00
2023-09-03T23:13:40.325Z,100.00
2023-09-03T23:16:07.244Z,100.00
2023-09-03T23:18:34.901Z,100.00
2023-09-03T23:21:04.713Z,100.00
2023-09-03T23:23:31.598Z,100.00
2023-09-03T23:25:58.690Z,100.00
2023-09-03T23:28:25.740Z,100.00
2023-09-03T23:30:52.886Z,100.00
2023-09-03T23:33:20.338Z,100.00
2023-09-03T23:35:47.199Z,100.00
2023-09-03T23:38:14.124Z,100.00
2023-09-03T23:40:41.273Z,100.00
2023-09-03T23:43:08.152Z,100.00
2023-09-03T23:45:35.114Z,100.00
2023-09-03T23:48:02.159Z,100.00
2023-09-03T23:50:29.120Z,100.00
2023-09-03T23:52:55.939Z,100.00
2023-09-03T23:55:22.973Z,100.00
2023-09-03T23:57:50.460Z,100.00
